Time;durP1;ratioP1;P1;durP2;ratioP2;P2;SDS_P1;SDS_P2;PMS_P1;PMS_P2;Temp;Humidity;BMP_temperature;BMP_pressure;BME280_temperature;BME280_humidity;BME280_pressure;Samples;Min_cycle;Max_cycle;Signal;HPM_P1;HPM_P2
2021/11/10 00:00:45;;;;;;;;;16.25;13.00;;;;;20.69;37.47;101963.06;5056707;28;45543;-49
2021/11/10 00:03:11;;;;;;;;;17.25;16.25;;;;;20.72;36.88;101968.22;5056883;28;45442;-50
2021/11/10 00:05:37;;;;;;;;;16.00;15.25;;;;;20.70;37.56;101957.72;5056908;28;45336;-47
2021/11/10 00:08:04;;;;;;;;;16.50;15.00;;;;;20.68;37.04;101956.91;5056661;28;45422;-46
2021/11/10 00:10:29;;;;;;;;;15.25;15.25;;;;;20.68;36.95;101946.38;5056948;28;45511;-46
2021/11/10 00:15:39;;;;;;;;;20.25;18.50;;;;;20.66;36.92;101942.97;5056719;28;45331;-44
2021/11/10 00:18:04;;;;;;;;;15.50;15.50;;;;;20.61;37.34;101939.66;5056552;28;45891;-44
2021/11/10 00:20:30;;;;;;;;;21.00;19.00;;;;;20.65;37.64;101946.53;5056801;28;45327;-45
2021/11/10 00:22:55;;;;;;;;;15.00;14.75;;;;;20.63;37.51;101935.19;5055716;28;45243;-45
2021/11/10 00:25:21;;;;;;;;;19.75;17.25;;;;;20.61;37.04;101933.53;5056697;28;45555;-45
2021/11/10 00:27:46;;;;;;;;;25.00;18.75;;;;;20.61;37.54;101929.09;5056241;28;46143;-44
2021/11/10 00:30:11;;;;;;;;;18.25;16.50;;;;;20.57;37.04;101909.06;5056326;28;45237;-44
2021/11/10 00:32:37;;;;;;;;;21.00;17.75;;;;;20.59;37.09;101898.50;5056523;28;45293;-44
2021/11/10 00:35:02;;;;;;;;;15.50;13.25;;;;;20.58;37.34;101910.78;5056899;28;45516;-44
2021/11/10 00:37:28;;;;;;;;;22.00;16.25;;;;;20.58;37.02;101918.69;5056341;28;45522;-44
2021/11/10 00:39:53;;;;;;;;;16.50;14.25;;;;;20.54;37.43;101922.38;5056448;28;45676;-45
2021/11/10 00:42:18;;;;;;;;;20.50;18.00;;;;;20.57;37.09;101940.66;5056493;28;45378;-44
2021/11/10 00:44:44;;;;;;;;;20.50;16.25;;;;;20.52;37.14;101914.50;5038273;28;45623;-46
2021/11/10 00:47:09;;;;;;;;;18.25;15.25;;;;;20.54;37.53;101917.94;5056118;28;45197;-47
2021/11/10 00:49:34;;;;;;;;;12.25;11.00;;;;;20.51;36.90;101918.06;5054310;28;45400;-46
2021/11/10 00:52:00;;;;;;;;;18.25;17.00;;;;;20.54;37.09;101917.09;5056355;28;45324;-44
2021/11/10 00:54:26;;;;;;;;;20.25;19.50;;;;;20.53;37.36;101915.38;5056387;28;45727;-45
2021/11/10 00:56:51;;;;;;;;;14.50;13.75;;;;;20.52;37.05;101908.41;5055732;28;45537;-45
2021/11/10 00:59:16;;;;;;;;;17.00;15.50;;;;;20.50;37.10;101907.59;5055889;28;45379;-45
2021/11/10 01:01:42;;;;;;;;;15.50;15.50;;;;;20.49;37.30;101901.47;5056258;28;45320;-44
2021/11/10 01:04:07;;;;;;;;;18.50;15.50;;;;;20.51;37.55;101898.78;5056278;28;45486;-46
2021/11/10 01:06:34;;;;;;;;;21.75;17.75;;;;;20.49;37.24;101885.69;5056011;28;45652;-48
2021/11/10 01:09:00;;;;;;;;;18.50;15.75;;;;;20.48;37.31;101875.19;5055849;28;45935;-47
2021/11/10 01:11:25;;;;;;;;;19.25;15.50;;;;;20.47;37.13;101870.84;5055997;28;45250;-47
2021/11/10 01:13:51;;;;;;;;;18.75;13.75;;;;;20.46;37.51;101877.88;5056152;28;45473;-46
2021/11/10 01:16:16;;;;;;;;;18.50;17.00;;;;;20.47;37.50;101868.19;5055715;28;45294;-46
2021/11/10 01:18:41;;;;;;;;;18.25;13.75;;;;;20.46;37.52;101877.00;5037704;28;45273;-46
2021/11/10 01:21:07;;;;;;;;;17.25;16.25;;;;;20.46;37.22;101871.75;5055883;28;45213;-48
2021/11/10 01:23:32;;;;;;;;;22.25;18.25;;;;;20.44;36.98;101877.09;5056352;28;45482;-46
2021/11/10 01:25:58;;;;;;;;;20.25;16.50;;;;;20.43;37.74;101867.47;5055634;28;46309;-46
2021/11/10 01:28:23;;;;;;;;;17.50;16.00;;;;;20.44;37.27;101878.88;5055692;28;45240;-47
2021/11/10 01:30:49;;;;;;;;;17.50;17.25;;;;;20.44;37.38;101881.50;5055680;28;45416;-46
2021/11/10 01:33:14;;;;;;;;;18.25;15.25;;;;;20.43;36.99;101885.06;5055901;28;45590;-47
2021/11/10 01:35:39;;;;;;;;;15.50;14.50;;;;;20.44;37.40;101886.78;5057355;28;46340;-46
2021/11/10 01:38:05;;;;;;;;;12.50;11.50;;;;;20.42;37.69;101872.81;5059380;28;45351;-46
2021/11/10 01:40:30;;;;;;;;;16.50;16.25;;;;;20.40;37.18;101872.84;5059077;28;45563;-47
2021/11/10 01:42:56;;;;;;;;;18.75;17.75;;;;;20.41;37.24;101881.63;5041124;28;45546;-46
2021/11/10 01:45:22;;;;;;;;;17.50;15.50;;;;;20.39;37.45;101885.16;5058869;28;46054;-47
2021/11/10 01:47:48;;;;;;;;;22.75;18.25;;;;;20.36;37.32;101876.53;5057613;28;45356;-50
2021/11/10 01:50:15;;;;;;;;;15.75;15.75;;;;;20.37;37.64;101876.47;5058873;28;45335;-46
2021/11/10 01:52:41;;;;;;;;;17.75;16.75;;;;;20.36;37.20;101864.19;5059080;28;45498;-47
2021/11/10 01:55:08;;;;;;;;;17.00;16.25;;;;;20.38;37.32;101869.44;5040899;28;46404;-47
2021/11/10 01:57:34;;;;;;;;;16.50;14.75;;;;;20.34;37.41;101879.19;5040803;28;45638;-46
2021/11/10 02:00:11;;;;;;;;;17.75;16.75;;;;;20.33;37.26;101877.50;5058933;28;45254;-47
2021/11/10 02:02:40;;;;;;;;;16.50;14.75;;;;;20.36;37.47;101881.78;5059151;28;45331;-46
2021/11/10 02:05:07;;;;;;;;;15.75;14.00;;;;;20.37;37.52;101883.50;5058688;28;45526;-46
2021/11/10 02:07:35;;;;;;;;;16.50;14.75;;;;;20.35;37.05;101880.06;5059018;28;45900;-47
2021/11/10 02:10:00;;;;;;;;;18.25;16.75;;;;;20.35;37.66;101878.28;5040863;28;45478;-47
2021/11/10 02:12:27;;;;;;;;;19.25;17.50;;;;;20.34;37.01;101884.47;5058597;28;45531;-45
2021/11/10 02:14:52;;;;;;;;;17.25;15.50;;;;;20.34;37.59;101881.81;5058508;28;46759;-46
2021/11/10 02:17:20;;;;;;;;;21.25;16.75;;;;;20.33;37.50;101866.97;5058660;28;45276;-48
2021/11/10 02:19:46;;;;;;;;;16.75;16.50;;;;;20.34;37.45;101866.03;5058539;28;45403;-47
2021/11/10 02:22:17;;;;;;;;;24.25;18.75;;;;;20.33;37.19;101863.47;5058773;28;45363;-48
2021/11/10 02:24:44;;;;;;;;;19.00;17.25;;;;;20.34;37.58;101865.19;5058289;28;46099;-47
2021/11/10 02:27:22;;;;;;;;;17.25;15.25;;;;;20.32;37.62;101865.25;5058362;28;45880;-46
2021/11/10 02:29:49;;;;;;;;;21.00;18.50;;;;;20.32;37.26;101860.00;5058520;28;45316;-47
2021/11/10 02:32:16;;;;;;;;;18.25;17.75;;;;;20.33;37.40;101860.84;5058355;28;45344;-47
2021/11/10 02:34:44;;;;;;;;;17.00;15.50;;;;;20.27;37.60;101842.66;5058008;28;46434;-48
2021/11/10 02:37:12;;;;;;;;;20.25;17.25;;;;;20.31;37.31;101850.38;5058110;28;45979;-47
2021/11/10 02:39:37;;;;;;;;;15.25;15.00;;;;;20.30;37.78;101850.41;5058612;28;45364;-46
2021/11/10 02:42:04;;;;;;;;;19.00;16.50;;;;;20.30;37.20;101840.75;5058358;28;45577;-47
2021/11/10 02:44:30;;;;;;;;;17.00;17.00;;;;;20.29;37.35;101836.41;5057876;28;46356;-46
2021/11/10 02:46:55;;;;;;;;;20.50;17.25;;;;;20.29;37.68;101833.78;5057151;28;45549;-45
2021/11/10 02:49:22;;;;;;;;;19.25;19.25;;;;;20.25;37.81;101837.44;5058016;28;45382;-45
2021/11/10 02:51:59;;;;;;;;;21.75;20.50;;;;;20.28;37.62;101845.22;5058071;28;45361;-45
2021/11/10 02:54:26;;;;;;;;;18.25;16.50;;;;;20.29;37.25;101839.03;5057872;28;45519;-49
2021/11/10 02:56:53;;;;;;;;;18.25;17.75;;;;;20.28;37.82;101836.47;5057950;28;45353;-49
2021/11/10 02:59:19;;;;;;;;;20.50;18.50;;;;;20.26;37.63;101841.78;5058032;28;45326;-47
2021/11/10 03:01:45;;;;;;;;;21.50;17.25;;;;;20.27;37.15;101835.59;5058088;28;45268;-47
2021/11/10 03:04:21;;;;;;;;;21.75;19.00;;;;;20.25;37.94;101832.16;5057958;28;46596;-47
2021/11/10 03:06:47;;;;;;;;;21.00;19.75;;;;;20.26;37.25;101830.41;5057301;28;45914;-46
2021/11/10 03:09:16;;;;;;;;;21.00;18.25;;;;;20.26;37.42;101830.41;5057829;28;45331;-47
2021/11/10 03:11:41;;;;;;;;;22.75;19.75;;;;;20.26;37.36;101833.03;5039660;28;45427;-48
2021/11/10 03:14:07;;;;;;;;;22.00;18.00;;;;;20.22;37.57;101821.78;5057779;28;47911;-47
2021/11/10 03:16:32;;;;;;;;;20.25;18.00;;;;;20.24;37.65;101820.78;5057410;28;45418;-47
2021/11/10 03:18:57;;;;;;;;;20.25;19.00;;;;;20.23;37.42;101823.47;5057594;28;45260;-48
2021/11/10 03:21:23;;;;;;;;;21.00;17.50;;;;;20.21;37.18;101818.28;5057798;28;45200;-46
2021/11/10 03:23:48;;;;;;;;;21.00;19.00;;;;;20.20;37.29;101824.44;5057315;28;45532;-45
2021/11/10 03:26:14;;;;;;;;;23.75;20.50;;;;;20.22;37.84;101838.41;5057414;28;45431;-47
2021/11/10 03:28:40;;;;;;;;;22.50;20.25;;;;;20.22;37.72;101832.31;5039621;28;45372;-48
2021/11/10 03:31:05;;;;;;;;;21.50;19.25;;;;;20.22;37.32;101834.94;5057408;28;45261;-46
2021/11/10 03:33:31;;;;;;;;;27.50;22.25;;;;;20.21;37.67;101838.47;5057317;28;45513;-48
2021/11/10 03:35:56;;;;;;;;;24.50;22.25;;;;;20.22;37.62;101837.56;5057204;28;45305;-46
2021/11/10 03:38:22;;;;;;;;;22.25;19.50;;;;;20.17;37.54;101836.88;5057399;28;45837;-46
2021/11/10 03:40:47;;;;;;;;;22.25;21.50;;;;;20.19;37.81;101856.09;5057448;28;45450;-46
2021/11/10 03:43:13;;;;;;;;;22.75;21.50;;;;;20.20;37.85;101852.56;5057142;28;46325;-47
2021/11/10 03:45:38;;;;;;;;;21.50;21.50;;;;;20.19;37.70;101837.69;5039364;28;45362;-46
2021/11/10 03:48:04;;;;;;;;;23.00;22.50;;;;;20.19;37.33;101841.16;5057126;28;45577;-46
2021/11/10 03:50:30;;;;;;;;;25.25;22.25;;;;;20.18;37.94;101842.06;5057283;28;45351;-46
2021/11/10 03:52:55;;;;;;;;;25.25;21.25;;;;;20.15;37.50;101838.69;5056897;28;45478;-46
2021/11/10 03:55:21;;;;;;;;;26.50;24.75;;;;;20.17;37.74;101844.78;5056945;28;45361;-46
2021/11/10 03:57:46;;;;;;;;;24.50;22.25;;;;;20.14;37.81;101844.88;5056850;28;45252;-47
2021/11/10 04:00:12;;;;;;;;;30.50;24.75;;;;;20.16;37.65;101846.56;5057574;28;45614;-47
2021/11/10 04:02:38;;;;;;;;;23.50;22.50;;;;;20.15;37.45;101849.22;5056790;28;46257;-46
2021/11/10 04:05:03;;;;;;;;;27.00;21.50;;;;;20.14;37.62;101855.41;5056629;28;45370;-46
2021/11/10 04:07:29;;;;;;;;;23.50;23.00;;;;;20.15;37.27;101870.28;5057035;28;45948;-45
2021/11/10 04:09:54;;;;;;;;;24.50;24.25;;;;;20.14;37.36;101884.34;5056989;28;45499;-46
2021/11/10 04:12:19;;;;;;;;;21.50;21.50;;;;;20.14;37.74;101906.28;5056531;28;45508;-47
2021/11/10 04:14:45;;;;;;;;;23.50;23.50;;;;;20.14;37.16;101929.09;5056640;28;45254;-47
2021/11/10 04:17:10;;;;;;;;;25.75;22.75;;;;;20.12;37.94;101916.00;5056895;28;45379;-47
2021/11/10 04:19:36;;;;;;;;;31.00;25.25;;;;;20.11;37.36;101900.28;5056997;28;45558;-45
2021/11/10 04:22:02;;;;;;;;;31.25;26.50;;;;;20.13;37.22;101908.94;5056444;28;45388;-47
2021/11/10 04:24:28;;;;;;;;;25.75;22.75;;;;;20.13;37.40;101907.19;5056527;28;45446;-45
2021/11/10 04:26:54;;;;;;;;;30.00;28.25;;;;;20.12;37.70;101902.00;5056682;28;45418;-47
2021/11/10 04:29:19;;;;;;;;;27.25;27.25;;;;;20.12;37.76;101896.75;5056820;28;45454;-45
2021/11/10 04:31:44;;;;;;;;;29.25;25.75;;;;;20.11;37.57;101893.22;5056685;28;45312;-47
2021/11/10 04:34:10;;;;;;;;;26.50;24.75;;;;;20.10;37.36;101891.50;5056895;28;45364;-45
2021/11/10 04:36:36;;;;;;;;;25.50;23.75;;;;;20.11;37.44;101895.03;5038436;28;45333;-45
2021/11/10 04:39:02;;;;;;;;;26.50;24.00;;;;;20.09;37.84;101892.44;5056648;28;45151;-46
2021/11/10 04:41:27;;;;;;;;;27.00;23.50;;;;;20.09;37.31;101884.53;5056336;28;45623;-46
2021/11/10 04:43:53;;;;;;;;;22.75;21.25;;;;;20.09;37.39;101874.00;5056364;28;45294;-45
2021/11/10 04:46:37;;;;;;;;;27.00;23.75;;;;;20.07;37.52;101887.22;5056260;28;45507;-47
2021/11/10 04:49:04;;;;;;;;;22.75;21.50;;;;;20.07;37.59;101895.13;5056530;28;45320;-45
2021/11/10 04:51:31;;;;;;;;;20.25;20.00;;;;;20.05;37.48;101889.06;5055806;28;46513;-45
2021/11/10 04:53:57;;;;;;;;;23.50;23.50;;;;;20.07;37.21;101896.88;5038206;28;46053;-45
2021/11/10 04:56:23;;;;;;;;;24.50;19.50;;;;;20.06;37.39;101890.78;5038153;28;45375;-44
2021/11/10 04:58:49;;;;;;;;;27.75;24.00;;;;;20.04;37.44;101882.06;5056274;28;45635;-45
2021/11/10 05:01:21;;;;;;;;;22.00;19.00;;;;;20.05;37.86;101881.16;5056285;28;45455;-45
2021/11/10 05:03:46;;;;;;;;;27.00;22.50;;;;;20.06;37.21;101860.97;5056134;28;46032;-45
2021/11/10 05:06:12;;;;;;;;;22.00;21.50;;;;;20.03;37.39;101856.66;5056319;28;45859;-45
2021/11/10 05:08:38;;;;;;;;;26.50;21.75;;;;;20.05;37.79;101861.88;5056380;28;45396;-44
2021/11/10 05:11:03;;;;;;;;;20.00;19.50;;;;;20.04;37.58;101853.13;5059325;28;45566;-46
2021/11/10 05:13:28;;;;;;;;;23.75;21.00;;;;;20.04;37.49;101847.84;5059560;28;45427;-45
2021/11/10 05:15:54;;;;;;;;;19.25;18.50;;;;;20.04;37.21;101850.50;5041519;28;45422;-45
2021/11/10 05:18:20;;;;;;;;;22.50;22.50;;;;;20.04;37.27;101839.97;5059591;28;45382;-46
2021/11/10 05:20:47;;;;;;;;;20.00;20.00;;;;;20.00;37.83;101833.13;5059444;28;51076;-47
2021/11/10 05:23:12;;;;;;;;;19.00;18.00;;;;;20.03;37.17;101827.72;5059834;28;45332;-45
2021/11/10 05:25:38;;;;;;;;;22.00;18.25;;;;;20.00;37.10;101822.59;5059461;28;45410;-48
2021/11/10 05:28:03;;;;;;;;;16.50;13.50;;;;;20.02;37.86;101830.41;5059623;28;45249;-47
2021/11/10 05:30:29;;;;;;;;;19.50;19.50;;;;;20.01;37.12;101834.81;5059019;28;45439;-48
2021/11/10 05:32:54;;;;;;;;;20.50;20.00;;;;;20.02;37.34;101831.25;5059278;28;45272;-48
2021/11/10 05:35:20;;;;;;;;;16.50;15.25;;;;;20.02;37.34;101826.00;5059322;28;45765;-47
2021/11/10 05:37:45;;;;;;;;;18.00;17.50;;;;;19.98;37.51;101813.88;5059735;28;45665;-47
2021/11/10 05:40:11;;;;;;;;;22.75;20.50;;;;;20.01;37.67;101828.69;5058968;28;45598;-48
2021/11/10 05:42:37;;;;;;;;;20.75;19.00;;;;;20.00;37.66;101822.59;5059020;28;45320;-54
2021/11/10 05:45:03;;;;;;;;;16.50;15.75;;;;;20.00;37.56;101816.44;5059141;28;45312;-45
2021/11/10 05:47:28;;;;;;;;;17.00;16.00;;;;;20.00;37.06;101806.81;5059243;28;45557;-45
2021/11/10 05:49:54;;;;;;;;;19.50;17.00;;;;;19.99;37.72;101814.72;5057465;28;45817;-48
2021/11/10 05:52:20;;;;;;;;;24.50;20.50;;;;;20.00;37.81;101801.53;5058804;28;45337;-47
2021/11/10 05:54:48;;;;;;;;;24.00;18.50;;;;;19.97;37.29;101795.50;5059205;28;45301;-48
2021/11/10 05:57:14;;;;;;;;;20.25;18.50;;;;;19.99;37.70;101804.22;5059107;28;45530;-47
2021/11/10 05:59:41;;;;;;;;;19.50;17.25;;;;;19.98;37.27;101813.88;5058233;28;45618;-49
2021/11/10 06:02:07;;;;;;;;;20.50;18.75;;;;;19.98;37.42;101824.41;5058743;28;45438;-47
2021/11/10 06:04:32;;;;;;;;;15.75;15.50;;;;;19.96;37.24;101822.72;5058841;28;45432;-50
2021/11/10 06:06:58;;;;;;;;;20.25;16.25;;;;;19.98;37.17;101824.41;5058718;28;45589;-50
2021/11/10 06:09:23;;;;;;;;;20.50;18.75;;;;;19.98;37.30;101836.69;5058420;28;46099;-48
2021/11/10 06:11:48;;;;;;;;;19.25;14.00;;;;;19.97;37.49;101849.00;5058806;28;45342;-50
2021/11/10 06:14:14;;;;;;;;;15.75;15.75;;;;;19.98;37.45;101865.63;5058631;28;45340;-54
2021/11/10 06:16:39;;;;;;;;;6.00;5.00;;;;;19.97;37.42;101870.06;5058917;28;45406;-48
2021/11/10 06:19:05;;;;;;;;;15.25;13.75;;;;;19.99;37.25;101878.75;5058414;28;45524;-48
2021/11/10 06:21:31;;;;;;;;;24.00;20.75;;;;;19.99;37.82;101870.00;5057058;28;45237;-47
2021/11/10 06:23:56;;;;;;;;;17.75;16.25;;;;;20.05;37.86;101875.88;5058554;28;45316;-45
2021/11/10 06:26:22;;;;;;;;;21.00;19.75;;;;;20.07;37.57;101874.06;5058702;28;45556;-46
2021/11/10 06:28:48;;;;;;;;;16.50;16.25;;;;;20.12;37.77;101873.06;5058500;28;46271;-47
2021/11/10 06:31:13;;;;;;;;;15.50;15.50;;;;;20.15;37.38;101886.06;5058218;28;45793;-45
2021/11/10 06:33:39;;;;;;;;;18.50;16.50;;;;;20.19;37.51;101893.81;5058391;28;45359;-49
2021/11/10 06:36:04;;;;;;;;;17.50;16.75;;;;;20.20;37.63;101886.78;5058469;28;45407;-46
2021/11/10 06:38:31;;;;;;;;;17.50;16.25;;;;;20.28;37.58;101899.66;5058135;28;46316;-48
2021/11/10 06:40:56;;;;;;;;;18.00;16.50;;;;;20.30;37.54;101898.69;5058029;28;45391;-47
2021/11/10 06:43:24;;;;;;;;;20.75;18.25;;;;;20.34;36.97;101904.69;5058185;28;45340;-55
2021/11/10 06:45:49;;;;;;;;;21.00;18.75;;;;;20.34;36.94;101905.53;5058602;28;45549;-51
2021/11/10 06:48:14;;;;;;;;;19.00;16.50;;;;;20.36;37.55;101919.50;5057874;28;45284;-50
2021/11/10 06:50:40;;;;;;;;;17.00;16.00;;;;;20.38;37.29;101938.72;5057776;28;45327;-52
2021/11/10 06:53:06;;;;;;;;;21.25;16.00;;;;;20.42;37.06;101944.75;5058109;28;45336;-49
2021/11/10 06:55:32;;;;;;;;;21.25;18.00;;;;;20.46;37.12;101951.63;5058102;28;45720;-50
2021/11/10 06:57:57;;;;;;;;;18.75;16.75;;;;;20.50;36.97;101957.63;5057816;28;46466;-50
2021/11/10 07:00:23;;;;;;;;;20.50;15.75;;;;;20.53;37.38;101958.38;5057648;28;45264;-52
2021/11/10 07:02:48;;;;;;;;;17.75;15.75;;;;;20.55;37.28;101961.81;5058129;28;45340;-50
2021/11/10 07:05:13;;;;;;;;;18.50;18.00;;;;;20.59;37.05;101974.88;5057837;28;45404;-46
2021/11/10 07:07:39;;;;;;;;;23.25;18.75;;;;;20.58;36.54;101959.97;5057583;28;46058;-49
2021/11/10 07:10:05;;;;;;;;;16.50;15.75;;;;;20.63;36.94;101958.88;5057581;28;45447;-46
2021/11/10 07:12:31;;;;;;;;;15.50;15.50;;;;;20.65;36.78;101962.34;5057818;28;45261;-48
2021/11/10 07:14:56;;;;;;;;;16.50;15.75;;;;;20.66;36.88;101956.16;5057815;28;45638;-47
2021/11/10 07:17:23;;;;;;;;;18.75;17.50;;;;;20.64;36.47;101944.81;5057869;28;45486;-45
2021/11/10 07:19:51;;;;;;;;;17.75;16.00;;;;;20.66;36.71;101948.25;5057824;28;45410;-47
2021/11/10 07:22:17;;;;;;;;;21.75;18.00;;;;;20.67;36.55;101944.66;5056286;28;45303;-48
2021/11/10 07:24:42;;;;;;;;;21.50;18.50;;;;;20.67;36.35;101942.03;5057628;28;45277;-52
2021/11/10 07:27:08;;;;;;;;;19.00;17.00;;;;;20.66;36.88;101936.84;5057354;28;45306;-54
2021/11/10 07:29:33;;;;;;;;;20.50;18.75;;;;;20.64;36.34;101944.81;5057564;28;45396;-52
2021/11/10 07:31:58;;;;;;;;;20.75;18.00;;;;;20.63;36.49;101942.22;5038736;28;45407;-50
2021/11/10 07:34:24;;;;;;;;;20.00;16.50;;;;;20.65;36.43;101950.91;5056218;28;45616;-50
2021/11/10 07:36:50;;;;;;;;;19.50;17.00;;;;;20.64;36.39;101939.53;5057531;28;46511;-54
2021/11/10 07:39:15;;;;;;;;;20.75;17.50;;;;;20.65;36.70;101938.63;5056928;28;45324;-49
2021/11/10 07:41:41;;;;;;;;;19.25;16.75;;;;;20.66;36.71;101935.06;5057261;28;45202;-52
2021/11/10 07:44:10;;;;;;;;;17.25;15.25;;;;;20.66;36.31;101936.84;5057399;28;45585;-50
2021/11/10 07:46:36;;;;;;;;;16.50;14.75;;;;;20.63;36.74;101926.41;5056820;28;46931;-52
2021/11/10 07:49:02;;;;;;;;;17.25;17.00;;;;;20.65;36.49;101928.09;5056828;28;45269;-52
2021/11/10 07:51:28;;;;;;;;;18.25;16.50;;;;;20.62;36.74;101922.94;5057010;28;45233;-52
2021/11/10 07:53:56;;;;;;;;;16.00;14.25;;;;;20.60;36.89;101923.91;5057595;28;45554;-51
2021/11/10 07:56:22;;;;;;;;;19.00;16.50;;;;;20.59;37.02;101923.03;5057254;28;47336;-52
2021/11/10 07:58:48;;;;;;;;;20.75;16.25;;;;;20.53;36.84;101926.75;5056680;28;45867;-48
2021/11/10 08:01:14;;;;;;;;;17.75;16.50;;;;;20.55;36.64;101924.09;5056965;28;45338;-49
2021/11/10 08:03:40;;;;;;;;;18.25;16.75;;;;;20.54;36.67;101923.22;5056926;28;45367;-50
2021/11/10 08:06:05;;;;;;;;;19.50;17.50;;;;;20.53;36.96;101920.66;5056386;28;45587;-47
2021/11/10 08:08:31;;;;;;;;;19.25;16.75;;;;;20.51;36.66;101925.13;5056810;28;45306;-48
2021/11/10 08:11:00;;;;;;;;;17.00;17.00;;;;;20.52;36.82;101938.22;5038768;28;45249;-48
2021/11/10 08:13:27;;;;;;;;;20.25;17.25;;;;;20.51;36.89;101939.13;5057162;28;45178;-45
2021/11/10 08:15:56;;;;;;;;;18.50;16.25;;;;;20.51;37.24;101943.53;5056865;28;46116;-48
2021/11/10 08:18:22;;;;;;;;;16.50;16.00;;;;;20.50;37.12;101950.59;5056963;28;45195;-45
2021/11/10 08:20:48;;;;;;;;;19.00;14.25;;;;;20.51;37.15;101948.81;5056672;28;45274;-45
2021/11/10 08:23:19;;;;;;;;;17.50;15.75;;;;;20.50;37.03;101944.47;5038732;28;45243;-50
2021/11/10 08:25:44;;;;;;;;;17.75;17.75;;;;;20.50;37.36;101937.44;5056440;28;46210;-54
2021/11/10 08:28:09;;;;;;;;;19.00;18.25;;;;;20.49;37.37;101937.47;5038419;28;45523;-50
2021/11/10 08:30:35;;;;;;;;;18.50;17.75;;;;;20.50;37.38;101953.22;5056400;28;45404;-52
2021/11/10 08:33:00;;;;;;;;;17.25;17.25;;;;;20.48;37.29;101955.06;5056634;28;45375;-52
2021/11/10 08:35:26;;;;;;;;;21.00;20.25;;;;;20.48;37.12;101949.78;5056461;28;45375;-52
2021/11/10 08:37:52;;;;;;;;;19.50;17.25;;;;;20.49;37.70;101950.63;5056462;28;45270;-54
2021/11/10 08:40:19;;;;;;;;;17.75;15.25;;;;;20.48;37.34;101944.53;5056376;28;45561;-52
2021/11/10 08:42:44;;;;;;;;;18.75;16.50;;;;;20.49;37.21;101950.63;5056526;28;45466;-50
2021/11/10 08:45:13;;;;;;;;;16.75;15.25;;;;;20.48;37.43;101957.69;5055128;28;47040;-52
2021/11/10 08:47:42;;;;;;;;;17.75;17.25;;;;;20.46;37.39;101961.28;5056169;28;45445;-48
2021/11/10 08:50:08;;;;;;;;;17.25;15.75;;;;;20.47;37.32;101958.59;5055172;28;45256;-51
2021/11/10 08:52:35;;;;;;;;;19.25;17.25;;;;;20.46;37.44;101953.38;5056324;28;45578;-53
2021/11/10 08:55:04;;;;;;;;;36.00;27.75;;;;;20.46;37.60;101956.00;5038058;28;48084;-53
2021/11/10 08:57:29;;;;;;;;;24.25;23.25;;;;;20.44;37.28;101961.34;5038105;28;45807;-52
2021/11/10 08:59:54;;;;;;;;;23.25;22.00;;;;;20.41;36.67;101952.72;5056533;28;45446;-53
2021/11/10 09:02:20;;;;;;;;;32.75;26.25;;;;;20.39;36.55;101951.00;5056108;28;45576;-53
2021/11/10 09:04:45;;;;;;;;;28.50;24.50;;;;;20.34;36.94;101946.81;5055765;28;45315;-50
2021/11/10 09:07:10;;;;;;;;;29.50;29.50;;;;;20.36;36.58;101956.34;5055971;28;45336;-47
2021/11/10 09:09:37;;;;;;;;;31.75;29.75;;;;;20.34;36.00;101958.19;5054810;28;45232;-48
2021/11/10 09:12:03;;;;;;;;;32.00;30.75;;;;;20.33;36.05;101958.25;5056075;28;45423;-46
2021/11/10 09:14:29;;;;;;;;;34.50;31.00;;;;;20.30;36.22;101959.22;5055674;28;47613;-46
2021/11/10 09:16:54;;;;;;;;;29.25;29.25;;;;;20.29;35.88;101949.59;5056121;28;45611;-45
2021/11/10 09:19:20;;;;;;;;;27.75;27.75;;;;;20.26;36.00;101936.56;5055863;28;45222;-48
2021/11/10 09:21:45;;;;;;;;;30.50;27.50;;;;;20.26;36.03;101936.56;5055978;28;45376;-48
2021/11/10 09:24:11;;;;;;;;;27.75;25.25;;;;;20.24;35.51;101922.59;5055663;28;46312;-49
2021/11/10 09:26:37;;;;;;;;;29.50;27.25;;;;;20.21;35.85;101922.72;5037548;28;45352;-48
2021/11/10 09:29:04;;;;;;;;;31.25;27.25;;;;;20.18;35.97;101917.56;5037749;28;45320;-45
2021/11/10 09:31:30;;;;;;;;;22.25;18.50;;;;;20.20;35.64;101923.63;5055855;28;45339;-45
2021/11/10 09:34:01;;;;;;;;;30.00;28.00;;;;;20.18;35.26;101921.03;5055937;28;47102;-49
2021/11/10 09:36:26;;;;;;;;;32.00;28.50;;;;;20.16;35.34;101916.75;5037945;28;45535;-45
2021/11/10 09:38:52;;;;;;;;;26.00;24.50;;;;;20.13;35.20;101922.13;5055769;28;45332;-47
2021/11/10 09:41:18;;;;;;;;;34.75;27.50;;;;;20.14;35.70;101931.72;5037859;28;45439;-49
2021/11/10 09:43:44;;;;;;;;;30.50;28.00;;;;;20.13;35.46;101937.91;5055166;28;46484;-48
2021/11/10 09:46:12;;;;;;;;;41.25;33.00;;;;;20.12;35.49;101941.47;5055461;28;45398;-52
2021/11/10 09:48:38;;;;;;;;;43.75;37.00;;;;;20.11;35.10;101947.66;5055588;28;45300;-50
2021/11/10 09:51:06;;;;;;;;;37.50;33.50;;;;;20.08;35.70;101951.22;5055570;28;45577;-49
2021/11/10 09:53:32;;;;;;;;;48.25;39.75;;;;;20.02;35.58;101947.03;5037226;28;48226;-47
2021/11/10 09:55:59;;;;;;;;;48.00;39.00;;;;;20.04;35.05;101966.28;5057553;28;45895;-48
2021/11/10 09:58:26;;;;;;;;;51.25;41.25;;;;;20.03;34.84;101974.25;5058815;28;45350;-50
2021/11/10 10:00:56;;;;;;;;;49.75;37.50;;;;;19.98;35.02;101984.06;5058932;28;45250;-51
2021/11/10 10:03:23;;;;;;;;;49.50;39.50;;;;;20.00;35.19;101979.59;5058649;28;45572;-51
2021/11/10 10:05:50;;;;;;;;;54.75;43.25;;;;;19.98;35.04;101982.28;5058506;28;45297;-45
2021/11/10 10:08:18;;;;;;;;;52.75;40.50;;;;;19.98;35.10;101989.31;5058749;28;45384;-50
2021/11/10 10:10:44;;;;;;;;;53.25;43.25;;;;;19.91;35.51;101981.66;5058919;28;45437;-45
2021/11/10 10:13:10;;;;;;;;;48.50;40.25;;;;;19.90;34.91;101993.09;5058453;28;45439;-48
2021/11/10 10:15:37;;;;;;;;;47.00;36.75;;;;;19.94;35.23;101999.09;5058507;28;45394;-55
2021/11/10 10:18:16;;;;;;;;;45.00;38.75;;;;;19.93;35.06;102002.63;5058644;28;45308;-51
2021/11/10 10:20:43;;;;;;;;;45.75;36.75;;;;;19.91;35.58;101991.28;5058651;28;45627;-52
2021/11/10 10:23:19;;;;;;;;;43.50;37.25;;;;;19.92;35.46;101987.75;5058285;28;46518;-50
2021/11/10 10:25:48;;;;;;;;;47.25;34.75;;;;;19.92;35.30;101980.75;5058357;28;45351;-54
2021/11/10 10:28:20;;;;;;;;;41.75;34.25;;;;;19.96;35.88;101993.75;5058479;28;45261;-52
2021/11/10 10:30:49;;;;;;;;;44.00;36.00;;;;;19.97;36.04;101977.06;5058661;28;45343;-51
2021/11/10 10:33:17;;;;;;;;;39.50;34.25;;;;;19.97;35.71;101969.19;5058226;28;46290;-53
2021/11/10 10:35:44;;;;;;;;;40.25;34.75;;;;;19.98;36.08;101971.78;5058176;28;45838;-50
2021/11/10 10:38:18;;;;;;;;;44.50;35.75;;;;;19.99;36.73;101967.34;5058341;28;45323;-46
2021/11/10 10:40:46;;;;;;;;;37.00;33.25;;;;;19.97;36.76;101959.53;5058409;28;45340;-53
2021/11/10 10:43:11;;;;;;;;;43.00;36.75;;;;;20.01;37.27;101962.91;5057912;28;45599;-49
2021/11/10 10:45:38;;;;;;;;;43.00;36.25;;;;;20.01;37.34;101961.13;5058016;28;45454;-49
2021/11/10 10:48:14;;;;;;;;;45.75;36.75;;;;;20.02;37.25;101954.94;5058053;28;45410;-46
2021/11/10 10:51:08;;;;;;;;;42.75;36.25;;;;;19.94;37.06;101920.16;5058096;28;45485;-43
2021/11/10 10:53:42;;;;;;;;;44.00;35.75;;;;;20.05;37.01;101946.94;5053738;28;45415;-48
2021/11/10 10:56:27;;;;;;;;;43.75;37.00;;;;;20.07;37.38;101928.47;5057884;28;46051;-49
2021/11/10 10:59:04;;;;;;;;;46.50;38.25;;;;;20.05;37.23;101939.06;5057823;28;45341;-51
2021/11/10 11:01:35;;;;;;;;;47.00;38.25;;;;;20.07;36.97;101936.34;5058266;28;45265;-48
2021/11/10 11:04:13;;;;;;;;;46.50;38.00;;;;;20.07;37.07;101918.81;5057979;28;46262;-51
2021/11/10 11:06:45;;;;;;;;;48.75;39.75;;;;;20.06;36.91;101921.50;5055522;28;45449;-50
2021/11/10 11:09:17;;;;;;;;;47.75;39.75;;;;;20.05;37.45;101914.53;5057736;28;45287;-47